This is the latest recevied weather packets stored in our database for station/object N5YHF. If no packets are shown the sender has not sent any weather packets the latest 10 day(s).
| Time | Temp. | Humidity | Pressure | Rain* | Wind** | Luminosity | Snow |
|---|---|---|---|---|---|---|---|
| 1777991133 | 22.22° C | 86% | 1007.5 hPa | 0 mm | - | - | - |
| 1777989930 | 21.67° C | 87% | 1007.5 hPa | 0 mm | - | - | - |
| 1777988728 | 21.67° C | 87% | 1007.4 hPa | 0 mm | - | - | - |
| 1777984549 | 21.11° C | 87% | 1006.5 hPa | 0 mm | - | - | - |
| 1777976133 | 21.67° C | 85% | 1006.6 hPa | 0 mm | - | - | - |
| 1777970721 | 21.67° C | 84% | 1006.7 hPa | 0 mm | - | - | - |
| 1777970130 | 21.67° C | 84% | 1006.8 hPa | 0 mm | - | - | - |
| 1777968929 | 21.67° C | 83% | 1006.9 hPa | 0 mm | - | - | - |
| 1777968320 | 21.67° C | 84% | 1007.2 hPa | 0 mm | - | - | - |
| 1777962934 | 21.67° C | 81% | 1008.1 hPa | 0 mm | - | - | - |
| 1777960529 | 22.22° C | 80% | 1008.3 hPa | 0 mm | - | - | - |
| 1777955720 | 22.78° C | 78% | 1008.2 hPa | 0 mm | - | - | - |
| 1777950935 | 23.89° C | 73% | 1008.2 hPa | 0 mm | - | - | - |
| 1777946741 | 25° C | 69% | 1008 hPa | 0 mm | - | - | - |
| 1777946125 | 25° C | 67% | 1008 hPa | 0 mm | - | - | - |
| 1777945534 | 25° C | 65% | 1007.9 hPa | 0 mm | - | - | - |
| 1777944331 | 25.56° C | 62% | 1007.9 hPa | 0 mm | - | - | - |
| 1777943716 | 25.56° C | 61% | 1007.9 hPa | 0 mm | - | - | - |
| 1777941919 | 26.11° C | 59% | 1007.7 hPa | 0 mm | - | - | - |
| 1777941325 | 26.11° C | 58% | 1007.7 hPa | 0 mm | - | - | - |
| 1777940736 | 26.67° C | 57% | 1007.5 hPa | 0 mm | - | - | - |
| 1777939535 | 26.67° C | 56% | 1007.5 hPa | 0 mm | - | - | - |
| 1777932926 | 27.78° C | 54% | 1008.7 hPa | 0 mm | - | - | - |
| 1777928731 | 27.78° C | 55% | 1009.6 hPa | 0 mm | - | - | - |
| 1777926920 | 27.78° C | 55% | 1010 hPa | 0 mm | - | - | - |
* Rain latest hour (hover to see other rain measurements)
** Current wind speed in m/s (hover to see current wind gust speed)